All City Stadium (Denver), Colorado
Current Conditions -  °F | °C
As of 3:53 AM on Wednesday 26 Nov 2014 (Local Time) from KAPA Reporting Station
Light Snow Light Snow  
Wind Chill: 19°   Ceiling: 900
Heat Index: 26°   Visibility: 9mi
Dew Point: 23°   Wind: 6mph
Humidity: 88%   Direction: 30°NNE
Pressure: 30.18"   Gusts: NA
Location:  39.69109°N, 104.9663°W
Report Text: KAPA 261053Z 03005KT 9SM -SN BKN009 OVC016 M03/M05 A3018 RMK AO2 SLP236 P0000 T10331050
Loading
Personal Weather Stations






























Interactive Weather Map New forecast layout! Learn more

10-Day Weather Forecast

Advertisements
Track Severe Weather on mobile